^^
Saratoga-Weather Station Historical Data
Daily Summary for September 16, 2021 Units:  English    Metric   Both
Daily Weekly Monthly Yearly Custom
  High: Low: Average:
Temperature: 63.7 °F 61.9 °F 63 °F
Dew Point: 61.7 °F 60.1 °F 61 °F
Humidity: 95% 93% 94%
Wind Speed: 6.9mph 0mph 2.7mph
Wind Gust: 9mph - -
Wind- - West
Pressure: 30 in 30 in -
Precipitation: 0 in    
Historical Graphs
 
 
Tabular Data for September 16, 2021
Time Temperature Dew Point Pressure Wind Wind Speed Wind Gust Humidity Rainfall Rate (Hourly) solar
00:01 63 °F 61 °F 30 in West 4 mph 7 mph 93% 0 in 0 W/m2
00:06 63 °F 61 °F 30 in WSW 2.9 mph 7 mph 93% 0 in 0 W/m2
00:11 63 °F 61 °F 30 in WSW 2 mph 5 mph 93% 0 in 0 W/m2
00:16 63 °F 61 °F 30 in WSW 2 mph 7 mph 93% 0 in 0 W/m2
00:21 63 °F 61 °F 30 in WNW 2 mph 3 mph 93% 0 in 0 W/m2
00:26 62.8 °F 60.8 °F 30 in West 0.9 mph 4 mph 93% 0 in 0 W/m2
00:31 62.8 °F 60.8 °F 30 in West 0.9 mph 3 mph 93% 0 in 0 W/m2
00:36 62.6 °F 60.8 °F 30 in Calm   2 mph 94% 0 in 0 W/m2
00:41 62.4 °F 60.4 °F 30 in West 2 mph 2 mph 93% 0 in 0 W/m2
00:46 62.4 °F 60.6 °F 30 in Calm     94% 0 in 0 W/m2
00:51 62.2 °F 60.4 °F 30 in Calm     94% 0 in 0 W/m2
00:56 62.1 °F 60.3 °F 30 in Calm     94% 0 in 0 W/m2
01:01 61.9 °F 60.1 °F 30 in Calm     94% 0 in 0 W/m2
01:06 61.9 °F 60.1 °F 30 in Calm     94% 0 in 0 W/m2
01:11 61.9 °F 60.4 °F 30 in Calm     95% 0 in 0 W/m2
01:16 61.9 °F 60.4 °F 30 in WSW 0.9 mph 2 mph 95% 0 in 0 W/m2
01:21 61.9 °F 60.4 °F 30 in Calm     95% 0 in 0 W/m2
01:26 62.1 °F 60.6 °F 30 in Calm   2 mph 95% 0 in 0 W/m2
01:31 62.1 °F 60.6 °F 30 in Calm     95% 0 in 0 W/m2
01:36 62.1 °F 60.6 °F 30 in Calm   1 mph 95% 0 in 0 W/m2
01:41 62.1 °F 60.6 °F 30 in Calm   2 mph 95% 0 in 0 W/m2
01:46 62.1 °F 60.6 °F 30 in Calm   2 mph 95% 0 in 0 W/m2
01:51 62.2 °F 60.8 °F 30 in WSW 0.9 mph 3 mph 95% 0 in 0 W/m2
01:56 62.2 °F 60.8 °F 30 in West 2.9 mph 6 mph 95% 0 in 0 W/m2
02:01 62.4 °F 61 °F 30 in West 2.9 mph 4 mph 95% 0 in 0 W/m2
02:06 62.6 °F 61.2 °F 30 in West 2.9 mph 3 mph 95% 0 in 0 W/m2
02:11 62.8 °F 61.3 °F 30 in West 2.9 mph 6 mph 95% 0 in 0 W/m2
02:16 63 °F 61.5 °F 30 in West 4 mph 6 mph 95% 0 in 0 W/m2
02:21 63 °F 61.2 °F 30 in West 2.9 mph 4 mph 94% 0 in 0 W/m2
02:26 63.1 °F 61.3 °F 30 in WSW 4 mph 7 mph 94% 0 in 0 W/m2
02:31 63.3 °F 61.5 °F 30 in West 2.9 mph 6 mph 94% 0 in 0 W/m2
02:36 63.3 °F 61.5 °F 30 in WNW 2.9 mph 7 mph 94% 0 in 0 W/m2
02:41 63.3 °F 61.5 °F 30 in West 4 mph 7 mph 94% 0 in 0 W/m2
02:46 63.3 °F 61.5 °F 30 in West 2 mph 4 mph 94% 0 in 0 W/m2
02:51 63.5 °F 61.5 °F 30 in WNW 2 mph 4 mph 93% 0 in 0 W/m2
02:56 63.5 °F 61.5 °F 30 in West 2.9 mph 6 mph 93% 0 in 0 W/m2
03:01 63.7 °F 61.7 °F 30 in WNW 4.9 mph 6 mph 93% 0 in 0 W/m2
03:06 63.7 °F 61.7 °F 30 in WSW 6.9 mph 7 mph 93% 0 in 0 W/m2
03:11 63.7 °F 61.7 °F 30 in WNW 4.9 mph 8 mph 93% 0 in 0 W/m2
03:17 63.7 °F 61.7 °F 30 in West 2.9 mph 6 mph 93% 0 in 0 W/m2
03:22 63.7 °F 61.7 °F 30 in West 4 mph 8 mph 93% 0 in 0 W/m2
03:27 63.7 °F 61.7 °F 30 in West 2.9 mph 4 mph 93% 0 in 0 W/m2
03:32 63.5 °F 61.5 °F 30 in West 6 mph 8 mph 93% 0 in 0 W/m2
03:37 63.3 °F 61.3 °F 30 in West 2.9 mph 8 mph 93% 0 in 0 W/m2
03:42 63.3 °F 61.3 °F 30 in West 4 mph 7 mph 93% 0 in 0 W/m2
03:47 63.3 °F 61.3 °F 30 in West 4 mph 4 mph 93% 0 in 0 W/m2
03:52 63.3 °F 61.3 °F 30 in West 2.9 mph 4 mph 93% 0 in 0 W/m2
03:57 63.1 °F 61.2 °F 30 in West 2 mph 4 mph 93% 0 in 0 W/m2
04:02 63.1 °F 61.2 °F 30 in WNW 6 mph 6 mph 93% 0 in 0 W/m2
04:07 63.1 °F 61.2 °F 30 in West 4 mph 5 mph 93% 0 in 0 W/m2
04:12 63 °F 61 °F 30 in WNW 4 mph 7 mph 93% 0 in 0 W/m2
04:17 63 °F 61 °F 30 in WSW 4 mph 6 mph 93% 0 in 0 W/m2
04:22 63 °F 61 °F 30 in West 4 mph 4 mph 93% 0 in 0 W/m2
04:27 63 °F 61 °F 30 in West 2.9 mph 6 mph 93% 0 in 0 W/m2
04:32 63 °F 61.2 °F 30 in West 2.9 mph 6 mph 94% 0 in 0 W/m2
04:37 63 °F 61 °F 30 in West 2.9 mph 7 mph 93% 0 in 0 W/m2
04:42 63 °F 61 °F 30 in SW 4 mph 6 mph 93% 0 in 0 W/m2
04:47 63 °F 61 °F 30 in WNW 2.9 mph 6 mph 93% 0 in 0 W/m2
04:52 63 °F 61 °F 30 in West 4 mph 6 mph 93% 0 in 0 W/m2
04:57 63 °F 61 °F 30 in WSW 4 mph 6 mph 93% 0 in 0 W/m2
05:02 63 °F 61 °F 30 in WSW 4 mph 4 mph 93% 0 in 0 W/m2
05:07 63 °F 61 °F 30 in WSW 4 mph 5 mph 93% 0 in 0 W/m2
05:12 63 °F 61 °F 30 in West 2.9 mph 7 mph 93% 0 in 0 W/m2
05:17 63 °F 61 °F 30 in WNW 2 mph 4 mph 93% 0 in 0 W/m2
05:22 63 °F 61 °F 30 in West 4 mph 6 mph 93% 0 in 0 W/m2
05:27 63.1 °F 61.2 °F 30 in West 4 mph 7 mph 93% 0 in 0 W/m2
05:32 63.1 °F 61.2 °F 30 in West 2.9 mph 7 mph 93% 0 in 0 W/m2
05:37 63.1 °F 61.2 °F 30 in West 2.9 mph 7 mph 93% 0 in 0 W/m2
05:42 63.1 °F 61.2 °F 30 in West 4 mph 7 mph 93% 0 in 0 W/m2
05:47 63.3 °F 61.3 °F 30 in West 2.9 mph 5 mph 93% 0 in 0 W/m2
05:52 63.3 °F 61.3 °F 30 in West 4 mph 9 mph 93% 0 in 0 W/m2
Juneau County Weather
Compliments of Weather Underground - 4 mb